createdAt,value
2023-05-19T00:08:05.756Z,19.77
2023-05-19T00:18:14.035Z,24.20
2023-05-19T00:28:17.211Z,20.40
2023-05-19T00:38:21.715Z,25.10
2023-05-19T00:48:26.483Z,24.13
2023-05-19T00:58:32.810Z,16.95
2023-05-19T01:08:37.615Z,26.25
2023-05-19T01:18:48.724Z,25.10
2023-05-19T01:29:08.885Z,17.55
2023-05-19T01:39:14.777Z,23.20
2023-05-19T01:49:18.510Z,25.27
2023-05-19T01:59:43.558Z,19.58
2023-05-19T02:09:54.320Z,22.67
2023-05-19T02:19:58.611Z,28.52
2023-05-19T02:30:01.611Z,25.13
2023-05-19T02:40:07.776Z,30.13
2023-05-19T02:50:10.971Z,22.42
2023-05-19T03:00:16.500Z,22.80
2023-05-19T03:10:20.489Z,23.70
2023-05-19T03:20:25.292Z,25.77
2023-05-19T03:30:28.359Z,31.05
2023-05-19T03:40:45.150Z,24.65
2023-05-19T03:50:50.172Z,26.73
2023-05-19T04:01:01.443Z,23.38
2023-05-19T04:11:04.549Z,22.80
2023-05-19T04:21:08.910Z,32.35
2023-05-19T04:31:12.917Z,26.90
2023-05-19T04:41:17.692Z,30.93
2023-05-19T04:51:21.463Z,27.02
2023-05-19T05:01:26.478Z,25.13
2023-05-19T05:11:31.213Z,31.25
2023-05-19T05:21:36.510Z,29.50
2023-05-19T05:31:40.035Z,30.40
2023-05-19T05:41:44.821Z,26.80
2023-05-19T05:52:01.797Z,32.05
2023-05-19T06:02:12.300Z,27.27
2023-05-19T06:12:16.082Z,21.25
2023-05-19T06:22:25.038Z,28.73
2023-05-19T06:32:30.655Z,25.42
2023-05-19T06:42:36.430Z,20.40
2023-05-19T06:53:04.188Z,22.15
2023-05-19T07:03:08.956Z,22.92
2023-05-19T07:13:12.552Z,24.40
2023-05-19T07:23:17.549Z,15.73
2023-05-19T07:33:22.496Z,18.35
2023-05-19T07:43:26.932Z,13.63
2023-05-19T07:53:29.970Z,18.65
2023-05-19T08:03:34.787Z,16.38
2023-05-19T08:13:38.032Z,21.48
2023-05-19T08:23:42.370Z,16.20
2023-05-19T08:33:45.719Z,14.60
2023-05-19T08:43:50.561Z,14.27
2023-05-19T08:53:58.137Z,15.57
2023-05-19T09:04:02.988Z,12.05
2023-05-19T09:14:09.389Z,12.65
2023-05-19T09:24:19.917Z,17.08
2023-05-19T09:34:26.903Z,12.85
2023-05-19T09:44:37.392Z,11.00
2023-05-19T09:54:43.892Z,13.25
2023-05-19T10:04:56.184Z,7.45
2023-05-19T10:14:59.781Z,10.95
2023-05-19T10:25:11.259Z,7.20
2023-05-19T10:35:33.913Z,10.65
2023-05-19T10:45:46.977Z,14.00
2023-05-19T10:55:56.153Z,14.57
2023-05-19T11:06:22.393Z,12.38
2023-05-19T11:16:30.041Z,10.93
2023-05-19T11:26:44.247Z,13.55
2023-05-19T11:36:48.293Z,10.98
2023-05-19T11:46:52.854Z,9.30
2023-05-19T11:56:56.275Z,21.17
2023-05-19T12:07:00.834Z,8.23
2023-05-19T12:17:12.615Z,12.88
2023-05-19T12:27:19.586Z,6.40
2023-05-19T12:37:22.813Z,8.93
2023-05-19T12:47:33.684Z,7.63
2023-05-19T12:57:37.823Z,11.25
2023-05-19T13:07:42.172Z,11.32
2023-05-19T13:17:46.434Z,6.30
2023-05-19T13:27:51.096Z,7.05
2023-05-19T13:37:54.211Z,10.02
2023-05-19T13:47:58.710Z,8.43
2023-05-19T13:58:01.884Z,10.77
2023-05-19T14:08:12.919Z,15.50
2023-05-19T14:18:17.142Z,10.95
2023-05-19T14:28:25.525Z,35.67
2023-05-19T14:38:29.656Z,8.68
2023-05-19T14:48:41.458Z,8.07
2023-05-19T14:58:54.663Z,8.73
2023-05-19T15:08:59.220Z,11.95
2023-05-19T15:19:12.488Z,20.55
2023-05-19T15:29:18.215Z,10.85
2023-05-19T15:39:22.450Z,10.50
2023-05-19T15:49:27.817Z,11.82
2023-05-19T15:59:34.655Z,12.50
2023-05-19T16:09:54.179Z,12.48
2023-05-19T16:19:57.134Z,9.40
2023-05-19T16:30:11.811Z,14.68
2023-05-19T16:40:15.115Z,16.10
2023-05-19T16:50:22.776Z,8.90
2023-05-19T17:00:29.853Z,10.55
2023-05-19T17:10:40.308Z,11.38
2023-05-19T17:20:44.190Z,10.23
2023-05-19T17:30:50.386Z,9.18
2023-05-19T17:40:54.685Z,10.52
2023-05-19T17:51:00.071Z,10.30
2023-05-19T18:01:03.657Z,10.63
2023-05-19T18:11:08.874Z,9.10
2023-05-19T18:21:14.385Z,8.48
2023-05-19T18:31:19.960Z,8.52
2023-05-19T18:41:23.404Z,8.40
2023-05-19T18:51:28.101Z,7.20
2023-05-19T19:01:31.241Z,9.45
2023-05-19T19:11:35.890Z,11.18
2023-05-19T19:21:39.727Z,9.10
2023-05-19T19:31:44.195Z,6.03
2023-05-19T19:41:47.174Z,6.53
2023-05-19T19:51:51.516Z,7.57
2023-05-19T20:01:54.617Z,9.43
2023-05-19T20:11:59.044Z,12.93
2023-05-19T20:22:02.139Z,9.13
2023-05-19T20:32:07.190Z,10.32
2023-05-19T20:42:11.273Z,14.80
2023-05-19T20:52:16.561Z,9.67
2023-05-19T21:02:19.550Z,9.52
2023-05-19T21:12:25.304Z,12.30
2023-05-19T21:22:28.997Z,9.00
2023-05-19T21:32:33.413Z,8.35
2023-05-19T21:42:36.807Z,7.00
2023-05-19T21:52:41.159Z,8.52
2023-05-19T22:02:44.521Z,8.07
2023-05-19T22:12:48.884Z,9.20
2023-05-19T22:22:51.861Z,6.83
2023-05-19T22:32:56.541Z,6.50
2023-05-19T22:42:59.546Z,8.48
2023-05-19T22:53:04.004Z,10.18
2023-05-19T23:03:07.083Z,13.35
2023-05-19T23:13:11.999Z,9.00
2023-05-19T23:23:15.126Z,11.52
2023-05-19T23:33:19.539Z,9.55
2023-05-19T23:43:22.534Z,12.73
2023-05-19T23:53:27.135Z,11.93
